createdAt,value
2023-03-31T00:02:12.937Z,2.83
2023-03-31T00:04:45.170Z,2.13
2023-03-31T00:07:13.129Z,2.63
2023-03-31T00:09:41.200Z,2.47
2023-03-31T00:12:19.889Z,2.20
2023-03-31T00:14:46.662Z,2.33
2023-03-31T00:17:13.476Z,2.20
2023-03-31T00:19:41.258Z,2.73
2023-03-31T00:22:08.167Z,2.27
2023-03-31T00:24:35.607Z,2.80
2023-03-31T00:27:03.570Z,3.17
2023-03-31T00:29:30.680Z,2.53
2023-03-31T00:31:58.978Z,2.50
2023-03-31T00:34:25.910Z,2.13
2023-03-31T00:36:55.699Z,2.23
2023-03-31T00:39:23.952Z,2.70
2023-03-31T00:41:51.051Z,2.57
2023-03-31T00:44:21.987Z,2.37
2023-03-31T00:46:53.501Z,2.43
2023-03-31T00:49:25.467Z,3.07
2023-03-31T00:51:55.246Z,2.37
2023-03-31T00:54:25.834Z,3.07
2023-03-31T00:56:57.584Z,3.40
2023-03-31T00:59:27.841Z,2.70
2023-03-31T01:01:58.444Z,2.50
2023-03-31T01:04:25.783Z,2.60
2023-03-31T01:07:00.075Z,2.97
2023-03-31T01:09:34.272Z,2.03
2023-03-31T01:12:03.066Z,2.70
2023-03-31T01:14:31.206Z,2.13
2023-03-31T01:16:57.917Z,2.33
2023-03-31T01:19:41.969Z,2.43
2023-03-31T01:22:59.411Z,2.20
2023-03-31T01:25:55.782Z,1.93
2023-03-31T01:28:31.508Z,1.90
2023-03-31T01:31:26.539Z,2.47
2023-03-31T01:34:23.457Z,2.47
2023-03-31T01:37:36.930Z,1.87
2023-03-31T01:40:34.912Z,2.57
2023-03-31T01:43:06.522Z,2.17
2023-03-31T01:45:47.158Z,2.70
2023-03-31T01:48:17.678Z,2.17
2023-03-31T01:50:47.842Z,3.40
2023-03-31T01:53:21.610Z,2.20
2023-03-31T01:55:52.711Z,1.87
2023-03-31T01:58:22.996Z,1.93
2023-03-31T02:00:56.251Z,2.10
2023-03-31T02:03:28.637Z,2.87
2023-03-31T02:05:58.474Z,2.13
2023-03-31T02:08:29.648Z,2.63
2023-03-31T02:10:58.583Z,1.93
2023-03-31T02:13:27.111Z,2.10
2023-03-31T02:15:58.792Z,2.67
2023-03-31T02:18:29.955Z,1.60
2023-03-31T02:20:58.395Z,1.80
2023-03-31T02:23:30.965Z,2.53
2023-03-31T02:26:02.408Z,2.17
2023-03-31T02:28:29.683Z,2.27
2023-03-31T02:31:07.327Z,2.00
2023-03-31T02:33:34.245Z,2.03
2023-03-31T02:36:01.318Z,2.07
2023-03-31T02:38:30.845Z,2.27
2023-03-31T02:40:58.130Z,1.83
2023-03-31T02:43:24.805Z,1.80
2023-03-31T02:45:51.775Z,2.00
2023-03-31T02:48:21.714Z,1.60
2023-03-31T02:51:14.261Z,2.20
2023-03-31T02:53:56.180Z,1.67
2023-03-31T02:56:43.926Z,1.53
2023-03-31T02:59:20.828Z,1.80
2023-03-31T03:02:00.740Z,2.00
2023-03-31T03:04:48.996Z,1.83
2023-03-31T03:07:25.993Z,1.90
2023-03-31T03:09:59.606Z,2.07
2023-03-31T03:12:33.819Z,2.20
2023-03-31T03:15:05.713Z,2.30
2023-03-31T03:17:35.472Z,1.60
2023-03-31T03:20:07.254Z,1.93
2023-03-31T03:22:34.133Z,1.97
2023-03-31T03:25:00.858Z,2.53
2023-03-31T03:27:28.389Z,2.17
2023-03-31T03:29:55.414Z,1.77
2023-03-31T03:32:22.275Z,2.17
2023-03-31T03:34:48.901Z,1.77
2023-03-31T03:37:15.599Z,1.97
2023-03-31T03:39:42.226Z,1.63
2023-03-31T03:42:08.825Z,1.80
2023-03-31T03:44:36.001Z,1.60
2023-03-31T03:47:02.717Z,1.90
2023-03-31T03:49:29.824Z,1.90
2023-03-31T03:51:56.453Z,1.60
2023-03-31T03:54:23.014Z,2.00
2023-03-31T03:56:49.662Z,2.13
2023-03-31T03:59:16.579Z,2.13
2023-03-31T04:01:44.118Z,2.20
2023-03-31T04:04:10.770Z,2.20
2023-03-31T04:06:37.367Z,2.40
2023-03-31T04:09:04.359Z,2.23
2023-03-31T04:11:31.610Z,1.83
2023-03-31T04:13:58.178Z,2.30
2023-03-31T04:16:24.824Z,1.93
2023-03-31T04:18:55.880Z,2.13
2023-03-31T04:21:23.459Z,2.10
2023-03-31T04:23:58.017Z,1.83
2023-03-31T04:26:30.768Z,2.10
2023-03-31T04:28:59.704Z,2.50
2023-03-31T04:31:30.269Z,2.10
2023-03-31T04:34:01.509Z,2.43
2023-03-31T04:36:30.700Z,3.13
2023-03-31T04:38:57.581Z,2.80
2023-03-31T04:41:26.806Z,2.30
2023-03-31T04:43:53.420Z,2.10
2023-03-31T04:46:20.267Z,3.17
2023-03-31T04:48:47.065Z,1.97
2023-03-31T04:51:14.768Z,2.20
2023-03-31T04:53:41.547Z,2.40
2023-03-31T04:56:08.586Z,2.13
2023-03-31T04:58:35.568Z,2.90
2023-03-31T05:01:02.245Z,2.40
2023-03-31T05:03:29.001Z,2.27
2023-03-31T05:05:55.893Z,2.40
2023-03-31T05:08:23.196Z,2.30
2023-03-31T05:10:49.854Z,2.37
2023-03-31T05:13:16.420Z,2.30
2023-03-31T05:15:44.360Z,2.37
2023-03-31T05:18:11.296Z,2.37
2023-03-31T05:20:38.223Z,2.90
2023-03-31T05:23:04.807Z,2.67
2023-03-31T05:25:32.830Z,2.40
2023-03-31T05:28:00.414Z,1.90
2023-03-31T05:30:28.094Z,2.00
2023-03-31T05:32:55.268Z,2.13
2023-03-31T05:35:22.252Z,2.20
2023-03-31T05:37:51.991Z,2.00
2023-03-31T05:40:18.593Z,2.23
2023-03-31T05:42:45.804Z,2.70
2023-03-31T05:45:12.416Z,2.63
2023-03-31T05:47:39.090Z,3.00
2023-03-31T05:50:08.227Z,3.43
2023-03-31T05:52:35.543Z,3.00
2023-03-31T05:55:02.424Z,3.63
2023-03-31T05:57:29.298Z,3.23
2023-03-31T05:59:56.616Z,3.27
2023-03-31T06:02:23.488Z,4.33
2023-03-31T06:04:50.189Z,3.13
2023-03-31T06:07:17.115Z,2.90
2023-03-31T06:09:43.760Z,4.03
2023-03-31T06:12:10.405Z,2.60
2023-03-31T06:14:40.052Z,3.00
2023-03-31T06:17:07.652Z,3.40
2023-03-31T06:19:34.401Z,3.10
2023-03-31T06:22:01.198Z,3.23
2023-03-31T06:24:27.910Z,3.23
2023-03-31T06:26:54.526Z,2.80
2023-03-31T06:29:21.316Z,2.83
2023-03-31T06:31:47.996Z,3.37
2023-03-31T06:34:15.248Z,3.13
2023-03-31T06:36:41.820Z,2.77
2023-03-31T06:39:08.712Z,3.30
2023-03-31T06:41:35.619Z,2.93
2023-03-31T06:44:02.555Z,2.97
2023-03-31T06:46:29.487Z,2.53
2023-03-31T06:48:56.444Z,3.13
2023-03-31T06:51:23.758Z,3.10
2023-03-31T06:53:52.947Z,12.37
2023-03-31T06:56:19.637Z,3.33
2023-03-31T06:58:46.212Z,3.17
2023-03-31T07:01:12.812Z,2.90
2023-03-31T07:03:39.701Z,3.23
2023-03-31T07:06:06.732Z,3.17
2023-03-31T07:08:34.128Z,2.83
2023-03-31T07:11:01.412Z,3.37
2023-03-31T07:13:28.715Z,2.80
2023-03-31T07:15:55.562Z,2.10
2023-03-31T07:18:25.241Z,2.60
2023-03-31T07:20:52.132Z,3.00
2023-03-31T07:23:19.437Z,2.80
2023-03-31T07:25:47.375Z,2.53
2023-03-31T07:28:13.977Z,3.10
2023-03-31T07:30:41.153Z,1.97
2023-03-31T07:33:08.373Z,2.93
2023-03-31T07:35:38.265Z,2.97
2023-03-31T07:38:05.106Z,2.73
2023-03-31T07:40:31.825Z,3.00
2023-03-31T07:42:59.315Z,3.07
2023-03-31T07:45:26.694Z,3.03
2023-03-31T07:47:53.744Z,2.43
2023-03-31T07:50:21.921Z,2.80
2023-03-31T07:52:48.489Z,2.47
2023-03-31T07:55:15.926Z,3.27
2023-03-31T07:57:42.914Z,2.47
2023-03-31T08:00:13.084Z,3.10
2023-03-31T08:02:40.838Z,2.23
2023-03-31T08:05:08.669Z,2.57
2023-03-31T08:07:36.744Z,2.47
2023-03-31T08:10:04.660Z,2.67
2023-03-31T08:12:31.264Z,2.53
2023-03-31T08:14:58.121Z,2.20
2023-03-31T08:17:40.539Z,2.73
2023-03-31T08:20:09.488Z,1.90
2023-03-31T08:22:36.289Z,1.87
2023-03-31T08:25:03.229Z,2.03
2023-03-31T08:27:33.250Z,2.70
2023-03-31T08:30:03.746Z,2.37
2023-03-31T08:32:31.747Z,2.37
2023-03-31T08:35:05.208Z,2.17
2023-03-31T08:37:32.160Z,2.37
2023-03-31T08:39:59.600Z,2.70
2023-03-31T08:42:36.274Z,2.20
2023-03-31T08:45:06.640Z,2.20
2023-03-31T08:47:35.956Z,2.23
2023-03-31T08:50:11.491Z,2.40
2023-03-31T08:52:41.190Z,2.50
2023-03-31T08:55:13.248Z,2.30
2023-03-31T08:57:50.998Z,2.40
2023-03-31T09:00:18.587Z,2.03
2023-03-31T09:02:54.734Z,2.60
2023-03-31T09:06:00.137Z,2.70
2023-03-31T09:08:41.960Z,2.53
2023-03-31T09:11:12.939Z,2.97
2023-03-31T09:14:09.194Z,2.20
2023-03-31T09:16:41.574Z,2.43
2023-03-31T09:19:14.796Z,2.00
2023-03-31T09:21:45.222Z,2.13
2023-03-31T09:24:19.216Z,2.80
2023-03-31T09:26:49.055Z,2.37
2023-03-31T09:29:18.924Z,2.40
2023-03-31T09:31:46.523Z,2.63
2023-03-31T09:34:16.912Z,2.07
2023-03-31T09:36:44.281Z,2.47
2023-03-31T09:39:14.538Z,2.23
2023-03-31T09:41:44.423Z,2.67
2023-03-31T09:44:25.649Z,2.77
2023-03-31T09:46:53.838Z,2.27
2023-03-31T09:49:53.994Z,2.27
2023-03-31T09:52:27.785Z,2.63
2023-03-31T09:54:55.987Z,2.13
2023-03-31T09:57:49.173Z,2.07
2023-03-31T10:00:18.684Z,2.20
2023-03-31T10:02:49.537Z,2.03
2023-03-31T10:05:39.267Z,2.40
2023-03-31T10:08:23.399Z,3.10
2023-03-31T10:10:52.583Z,1.73
2023-03-31T10:13:22.105Z,2.10
2023-03-31T10:15:52.939Z,2.30
2023-03-31T10:18:21.360Z,1.97
2023-03-31T10:20:51.049Z,2.07
2023-03-31T10:23:24.105Z,1.97
2023-03-31T10:25:51.159Z,2.37
2023-03-31T10:28:19.251Z,1.80
2023-03-31T10:30:50.747Z,2.37
2023-03-31T10:33:24.470Z,2.30
2023-03-31T10:35:56.045Z,2.57
2023-03-31T10:38:29.494Z,2.43
2023-03-31T10:40:58.049Z,2.43
2023-03-31T10:43:29.641Z,2.53
2023-03-31T10:45:59.241Z,2.40
2023-03-31T10:48:28.100Z,2.07
2023-03-31T10:50:58.705Z,2.27
2023-03-31T10:53:26.095Z,2.57
2023-03-31T10:56:07.150Z,3.17
2023-03-31T10:59:05.670Z,2.73
2023-03-31T11:01:47.355Z,2.70
2023-03-31T11:04:42.601Z,2.73
2023-03-31T11:07:17.477Z,2.70
2023-03-31T11:09:59.097Z,2.73
2023-03-31T11:12:31.175Z,2.63
2023-03-31T11:15:11.036Z,2.43
2023-03-31T11:17:51.683Z,2.43
2023-03-31T11:20:29.647Z,2.37
2023-03-31T11:23:05.741Z,2.23
2023-03-31T11:25:40.538Z,2.87
2023-03-31T11:28:33.996Z,1.97
2023-03-31T11:31:16.175Z,1.77
2023-03-31T11:34:05.859Z,2.13
2023-03-31T11:36:52.324Z,2.47
2023-03-31T11:39:30.773Z,2.23
2023-03-31T11:42:00.846Z,1.90
2023-03-31T11:44:34.953Z,2.27
2023-03-31T11:47:05.825Z,1.87
2023-03-31T11:49:37.530Z,2.37
2023-03-31T11:52:09.182Z,2.40
2023-03-31T11:54:40.555Z,2.10
2023-03-31T11:57:13.857Z,2.10
2023-03-31T11:59:43.023Z,3.00
2023-03-31T12:02:17.317Z,2.00
2023-03-31T12:04:48.020Z,2.07
2023-03-31T12:07:23.581Z,3.47
2023-03-31T12:10:02.370Z,2.50
2023-03-31T12:12:33.281Z,3.00
2023-03-31T12:15:10.610Z,2.97
2023-03-31T12:17:40.956Z,2.60
2023-03-31T12:20:16.091Z,2.90
2023-03-31T12:22:44.811Z,2.57
2023-03-31T12:25:14.217Z,2.50
2023-03-31T12:27:42.904Z,3.07
2023-03-31T12:30:13.600Z,3.53
2023-03-31T12:32:44.076Z,2.57
2023-03-31T12:35:20.197Z,2.20
2023-03-31T12:38:08.859Z,2.70
2023-03-31T12:40:45.443Z,2.63
2023-03-31T12:43:36.729Z,2.70
2023-03-31T12:46:18.228Z,1.93
2023-03-31T12:48:58.382Z,1.70
2023-03-31T12:51:43.385Z,2.10
2023-03-31T12:54:24.106Z,1.70
2023-03-31T12:57:14.713Z,1.40
2023-03-31T12:59:43.151Z,2.50
2023-03-31T13:02:25.762Z,2.30
2023-03-31T13:04:53.084Z,1.60
2023-03-31T13:07:39.494Z,2.47
2023-03-31T13:10:28.647Z,1.97
2023-03-31T13:13:03.599Z,2.13
2023-03-31T13:15:31.346Z,1.63
2023-03-31T13:17:59.939Z,1.97
2023-03-31T13:20:32.528Z,2.13
2023-03-31T13:23:02.383Z,1.90
2023-03-31T13:25:48.012Z,3.37
2023-03-31T13:28:36.231Z,2.53
2023-03-31T13:31:04.619Z,3.37
2023-03-31T13:33:34.960Z,2.93
2023-03-31T13:36:28.622Z,2.87
2023-03-31T13:39:11.100Z,1.93
2023-03-31T13:41:55.596Z,3.93
2023-03-31T13:44:53.339Z,3.13
2023-03-31T13:47:53.703Z,2.90
2023-03-31T13:50:50.427Z,2.63
2023-03-31T13:53:31.969Z,2.50
2023-03-31T13:56:10.792Z,1.90
2023-03-31T13:59:03.633Z,2.27
2023-03-31T14:02:02.754Z,2.70
2023-03-31T14:05:04.353Z,2.50
2023-03-31T14:07:36.863Z,3.10
2023-03-31T14:10:04.176Z,2.63
2023-03-31T14:12:32.549Z,2.13
2023-03-31T14:14:59.613Z,2.47
2023-03-31T14:17:29.212Z,1.97
2023-03-31T14:20:10.929Z,2.10
2023-03-31T14:22:47.889Z,1.63
2023-03-31T14:25:26.726Z,1.90
2023-03-31T14:28:04.414Z,2.00
2023-03-31T14:30:42.020Z,1.60
2023-03-31T14:33:24.365Z,1.60
2023-03-31T14:35:58.627Z,1.80
2023-03-31T14:38:28.824Z,2.13
2023-03-31T14:41:00.268Z,1.30
2023-03-31T14:43:32.799Z,1.57
2023-03-31T14:46:00.407Z,1.50
2023-03-31T14:48:28.625Z,1.50
2023-03-31T14:50:58.620Z,1.60
2023-03-31T14:53:27.514Z,1.60
2023-03-31T14:56:01.169Z,1.33
2023-03-31T14:58:31.617Z,1.73
2023-03-31T15:00:59.117Z,1.50
2023-03-31T15:03:27.455Z,2.00
2023-03-31T15:05:58.248Z,1.60
2023-03-31T15:08:27.074Z,2.00
2023-03-31T15:11:02.385Z,1.83
2023-03-31T15:13:44.322Z,1.97
2023-03-31T15:16:21.384Z,2.03
2023-03-31T15:18:48.233Z,1.50
2023-03-31T15:21:20.691Z,1.87
2023-03-31T15:23:51.886Z,2.17
2023-03-31T15:26:27.936Z,1.60
2023-03-31T15:29:01.353Z,1.20
2023-03-31T15:31:30.832Z,1.60
2023-03-31T15:33:58.015Z,2.03
2023-03-31T15:36:27.436Z,2.20
2023-03-31T15:38:57.739Z,2.03
2023-03-31T15:41:30.299Z,2.53
2023-03-31T15:44:47.152Z,2.20
2023-03-31T15:47:17.422Z,2.33
2023-03-31T15:49:52.526Z,2.50
2023-03-31T15:52:33.239Z,2.50
2023-03-31T15:55:01.177Z,2.43
2023-03-31T15:57:33.443Z,2.57
2023-03-31T16:00:00.798Z,1.93
2023-03-31T16:02:42.561Z,2.13
2023-03-31T16:05:29.358Z,2.50
2023-03-31T16:07:57.412Z,1.73
2023-03-31T16:10:26.008Z,1.53
2023-03-31T16:12:56.605Z,2.40
2023-03-31T16:15:32.742Z,1.37
2023-03-31T16:18:03.529Z,2.50
2023-03-31T16:20:36.698Z,1.93
2023-03-31T16:23:13.987Z,2.10
2023-03-31T16:25:42.284Z,2.07
2023-03-31T16:28:14.708Z,2.37
2023-03-31T16:30:43.298Z,2.03
2023-03-31T16:33:12.154Z,2.63
2023-03-31T16:35:42.169Z,2.27
2023-03-31T16:38:13.621Z,2.17
2023-03-31T16:40:45.332Z,2.77
2023-03-31T16:43:16.668Z,3.90
2023-03-31T16:45:46.461Z,2.10
2023-03-31T16:48:16.639Z,2.40
2023-03-31T16:50:45.597Z,2.47
2023-03-31T16:53:16.548Z,2.90
2023-03-31T16:58:24.005Z,3.40
2023-03-31T17:00:51.468Z,3.20
2023-03-31T17:03:18.488Z,2.40
2023-03-31T17:05:46.852Z,2.97
2023-03-31T17:08:14.996Z,2.17
2023-03-31T17:10:42.247Z,2.63
2023-03-31T17:13:09.470Z,3.60
2023-03-31T17:15:37.243Z,2.90
2023-03-31T17:18:04.779Z,2.70
2023-03-31T17:20:32.085Z,2.80
2023-03-31T17:22:58.961Z,2.47
2023-03-31T17:25:26.067Z,2.40
2023-03-31T17:27:52.807Z,2.60
2023-03-31T17:30:19.804Z,3.17
2023-03-31T17:32:47.755Z,3.00
2023-03-31T17:35:19.826Z,2.60
2023-03-31T17:37:46.762Z,3.00
2023-03-31T17:40:14.574Z,2.83
2023-03-31T17:42:42.139Z,3.17
2023-03-31T17:45:10.915Z,2.77
2023-03-31T17:47:37.586Z,3.17
2023-03-31T17:50:07.457Z,3.70
2023-03-31T17:52:34.925Z,4.93
2023-03-31T17:55:01.768Z,3.30
2023-03-31T17:57:28.627Z,3.50
2023-03-31T17:59:56.108Z,3.37
2023-03-31T18:02:26.482Z,3.93
2023-03-31T18:05:02.617Z,4.53
2023-03-31T18:07:30.049Z,4.67
2023-03-31T18:09:56.853Z,4.17
2023-03-31T18:12:23.920Z,3.80
2023-03-31T18:14:51.242Z,6.13
2023-03-31T18:17:17.963Z,4.03
2023-03-31T18:19:45.861Z,5.43
2023-03-31T18:22:18.095Z,4.60
2023-03-31T18:24:45.425Z,4.80
2023-03-31T18:27:12.002Z,6.53
2023-03-31T18:29:39.099Z,10.87
2023-03-31T18:32:06.463Z,5.03
2023-03-31T18:34:35.851Z,5.53
2023-03-31T18:37:02.948Z,5.27
2023-03-31T18:39:29.771Z,5.80
2023-03-31T18:41:58.779Z,4.40
2023-03-31T18:44:25.540Z,5.00
2023-03-31T18:46:52.218Z,4.40
2023-03-31T18:49:19.798Z,4.47
2023-03-31T18:51:46.365Z,6.07
2023-03-31T18:54:13.218Z,20.00
2023-03-31T18:56:40.160Z,10.07
2023-03-31T18:59:08.005Z,8.07
2023-03-31T19:01:39.275Z,11.87
2023-03-31T19:04:06.297Z,8.23
2023-03-31T19:06:33.017Z,8.13
2023-03-31T19:09:00.421Z,7.70
2023-03-31T19:11:27.901Z,7.70
2023-03-31T19:13:55.241Z,7.77
2023-03-31T19:16:26.051Z,6.90
2023-03-31T19:18:53.475Z,9.07
2023-03-31T19:21:21.256Z,7.50
2023-03-31T19:23:48.196Z,8.10
2023-03-31T19:26:17.554Z,8.03
2023-03-31T19:28:44.565Z,7.77
2023-03-31T19:31:11.526Z,8.10
2023-03-31T19:33:38.814Z,8.87
2023-03-31T19:36:05.649Z,8.37
2023-03-31T19:38:35.768Z,9.07
2023-03-31T19:41:05.287Z,9.47
2023-03-31T19:43:32.168Z,10.80
2023-03-31T19:45:59.772Z,8.30
2023-03-31T19:48:29.470Z,11.37
2023-03-31T19:51:03.275Z,11.70
2023-03-31T19:53:30.685Z,9.87
2023-03-31T19:55:59.089Z,9.07
2023-03-31T19:58:26.412Z,10.17
2023-03-31T20:00:53.858Z,10.17
2023-03-31T20:03:21.650Z,10.70
2023-03-31T20:05:48.497Z,10.33
2023-03-31T20:08:16.188Z,11.63
2023-03-31T20:10:43.030Z,9.57
2023-03-31T20:13:10.574Z,10.87
2023-03-31T20:15:39.758Z,11.40
2023-03-31T20:18:07.841Z,8.70
2023-03-31T20:20:34.713Z,8.30
2023-03-31T20:23:02.859Z,8.10
2023-03-31T20:25:30.448Z,7.97
2023-03-31T20:27:57.575Z,7.53
2023-03-31T20:30:24.421Z,8.07
2023-03-31T20:32:51.476Z,7.40
2023-03-31T20:35:18.250Z,8.47
2023-03-31T20:37:45.150Z,8.43
2023-03-31T20:40:11.944Z,9.30
2023-03-31T20:42:39.188Z,9.53
2023-03-31T20:45:08.064Z,10.77
2023-03-31T20:47:34.746Z,11.67
2023-03-31T20:50:02.264Z,10.93
2023-03-31T20:52:28.918Z,12.00
2023-03-31T20:54:55.680Z,10.30
2023-03-31T20:57:23.580Z,10.90
2023-03-31T20:59:50.974Z,10.37
2023-03-31T21:02:18.047Z,11.17
2023-03-31T21:04:45.525Z,10.97
2023-03-31T21:07:12.273Z,10.37
2023-03-31T21:09:39.156Z,11.13
2023-03-31T21:12:06.581Z,10.57
2023-03-31T21:14:33.781Z,9.43
2023-03-31T21:17:01.330Z,8.07
2023-03-31T21:19:28.429Z,9.47
2023-03-31T21:21:55.202Z,8.57
2023-03-31T21:24:22.512Z,7.83
2023-03-31T21:26:49.603Z,6.83
2023-03-31T21:29:16.210Z,6.83
2023-03-31T21:31:44.131Z,6.63
2023-03-31T21:34:11.533Z,6.70
2023-03-31T21:36:38.132Z,6.10
2023-03-31T21:39:04.974Z,6.50
2023-03-31T21:41:31.743Z,5.90
2023-03-31T21:44:01.803Z,4.60
2023-03-31T21:46:32.440Z,5.13
2023-03-31T21:48:59.323Z,5.43
2023-03-31T21:51:29.611Z,4.20
2023-03-31T21:53:56.746Z,4.30
2023-03-31T21:56:24.521Z,4.37
2023-03-31T21:58:51.468Z,4.00
2023-03-31T22:01:18.780Z,4.47
2023-03-31T22:03:47.974Z,4.27
2023-03-31T22:06:15.016Z,3.63
2023-03-31T22:08:42.250Z,3.50
2023-03-31T22:11:10.947Z,4.03
2023-03-31T22:13:37.904Z,3.20
2023-03-31T22:16:05.681Z,4.33
2023-03-31T22:18:32.395Z,3.47
2023-03-31T22:21:00.223Z,3.43
2023-03-31T22:23:27.071Z,3.47
2023-03-31T22:25:54.449Z,2.87
2023-03-31T22:28:21.015Z,3.27
2023-03-31T22:30:47.693Z,3.57
2023-03-31T22:33:14.895Z,2.80
2023-03-31T22:35:41.546Z,2.90
2023-03-31T22:38:08.724Z,3.17
2023-03-31T22:40:35.619Z,3.40
2023-03-31T22:43:03.203Z,3.03
2023-03-31T22:45:30.216Z,2.53
2023-03-31T22:47:57.189Z,3.33
2023-03-31T22:50:24.279Z,3.13
2023-03-31T22:52:51.202Z,3.17
2023-03-31T22:55:17.987Z,3.20
2023-03-31T22:57:45.201Z,3.53
2023-03-31T23:00:13.452Z,3.20
2023-03-31T23:02:42.745Z,3.10
2023-03-31T23:05:12.402Z,3.30
2023-03-31T23:07:38.965Z,3.47
2023-03-31T23:10:06.613Z,3.70
2023-03-31T23:12:33.224Z,3.00
2023-03-31T23:14:59.819Z,3.40
2023-03-31T23:17:27.096Z,3.67
2023-03-31T23:19:53.757Z,3.70
2023-03-31T23:22:20.913Z,3.20
2023-03-31T23:24:49.038Z,3.50
2023-03-31T23:27:15.682Z,3.93
2023-03-31T23:29:45.905Z,3.43
2023-03-31T23:32:12.850Z,4.17
2023-03-31T23:34:41.112Z,3.47
2023-03-31T23:37:08.503Z,3.23
2023-03-31T23:39:37.934Z,3.40
2023-03-31T23:42:05.477Z,3.07
2023-03-31T23:44:32.248Z,2.80
2023-03-31T23:46:59.458Z,3.47
2023-03-31T23:49:26.336Z,3.93
2023-03-31T23:51:53.641Z,3.20
2023-03-31T23:54:20.280Z,2.50
2023-03-31T23:56:46.941Z,3.47
2023-03-31T23:59:13.500Z,3.00
